Terminal Aerodrome Forecast
Issued by NWS

Home | Current Version | Previous Version | Text Only | Print | Product List | Glossary On
Versions: 1 2 3 4 5 6 7 8 9 10 11 12 13 14 15
416
FTUS46 KSGX 082338
TAFONT
TAF
KONT 082338Z 0900/1006 VRB05KT P6SM SCT200
     FM091300 VRB03KT 4SM BR BKN010 BKN200
     FM091700 VRB06KT P6SM FEW015 BKN150
     FM092100 25010KT P6SM BKN150
     FM100300 VRB05KT P6SM BKN015 BKN150=

USA.gov is the U.S. government's official web portal to all federal, state and local government web resources and services.